sensor_id;sensor_type;location;lat;lon;timestamp;P1;durP1;ratioP1;P2;durP2;ratioP2
15454;SDS011;21057;51.024;7.540;2022-08-11T00:01:07;13.93;;;12.82;;
15454;SDS011;21057;51.024;7.540;2022-08-11T00:03:42;13.95;;;13.00;;
15454;SDS011;21057;51.024;7.540;2022-08-11T00:06:11;14.18;;;13.00;;
15454;SDS011;21057;51.024;7.540;2022-08-11T00:08:43;14.00;;;13.10;;
15454;SDS011;21057;51.024;7.540;2022-08-11T00:11:15;14.13;;;13.13;;
15454;SDS011;21057;51.024;7.540;2022-08-11T00:13:44;14.38;;;13.15;;
15454;SDS011;21057;51.024;7.540;2022-08-11T00:16:16;14.35;;;13.35;;
15454;SDS011;21057;51.024;7.540;2022-08-11T00:18:48;14.48;;;13.25;;
15454;SDS011;21057;51.024;7.540;2022-08-11T00:21:16;14.38;;;13.32;;
15454;SDS011;21057;51.024;7.540;2022-08-11T00:23:46;14.63;;;13.52;;
15454;SDS011;21057;51.024;7.540;2022-08-11T00:26:25;14.80;;;13.60;;
15454;SDS011;21057;51.024;7.540;2022-08-11T00:28:55;14.50;;;13.60;;
15454;SDS011;21057;51.024;7.540;2022-08-11T00:31:23;14.93;;;13.82;;
15454;SDS011;21057;51.024;7.540;2022-08-11T00:33:55;14.05;;;13.13;;
15454;SDS011;21057;51.024;7.540;2022-08-11T00:36:25;14.48;;;13.35;;
15454;SDS011;21057;51.024;7.540;2022-08-11T00:38:54;14.35;;;13.25;;
15454;SDS011;21057;51.024;7.540;2022-08-11T00:41:31;14.63;;;13.63;;
15454;SDS011;21057;51.024;7.540;2022-08-11T00:47:17;14.77;;;13.68;;
15454;SDS011;21057;51.024;7.540;2022-08-11T00:49:57;15.45;;;14.25;;
15454;SDS011;21057;51.024;7.540;2022-08-11T00:52:35;14.95;;;13.70;;
15454;SDS011;21057;51.024;7.540;2022-08-11T00:58:28;14.70;;;13.57;;
15454;SDS011;21057;51.024;7.540;2022-08-11T01:01:26;15.57;;;14.38;;
15454;SDS011;21057;51.024;7.540;2022-08-11T01:04:15;15.25;;;13.95;;
15454;SDS011;21057;51.024;7.540;2022-08-11T01:07:28;15.80;;;14.45;;
15454;SDS011;21057;51.024;7.540;2022-08-11T01:10:22;15.38;;;14.25;;
15454;SDS011;21057;51.024;7.540;2022-08-11T01:13:13;15.00;;;13.80;;
15454;SDS011;21057;51.024;7.540;2022-08-11T01:16:07;14.45;;;13.55;;
15454;SDS011;21057;51.024;7.540;2022-08-11T01:19:16;15.52;;;14.32;;
15454;SDS011;21057;51.024;7.540;2022-08-11T01:22:18;14.93;;;13.73;;
15454;SDS011;21057;51.024;7.540;2022-08-11T01:36:53;15.07;;;13.95;;
15454;SDS011;21057;51.024;7.540;2022-08-11T01:39:47;15.25;;;14.05;;
15454;SDS011;21057;51.024;7.540;2022-08-11T01:45:54;14.75;;;13.75;;
15454;SDS011;21057;51.024;7.540;2022-08-11T01:48:28;14.43;;;13.43;;
15454;SDS011;21057;51.024;7.540;2022-08-11T01:51:04;14.73;;;13.65;;
15454;SDS011;21057;51.024;7.540;2022-08-11T01:53:45;14.15;;;13.25;;
15454;SDS011;21057;51.024;7.540;2022-08-11T01:56:22;14.80;;;13.70;;
15454;SDS011;21057;51.024;7.540;2022-08-11T01:59:14;14.25;;;13.35;;
15454;SDS011;21057;51.024;7.540;2022-08-11T02:05:09;14.07;;;13.07;;
15454;SDS011;21057;51.024;7.540;2022-08-11T02:07:48;14.38;;;13.48;;
15454;SDS011;21057;51.024;7.540;2022-08-11T02:10:25;14.20;;;13.20;;
15454;SDS011;21057;51.024;7.540;2022-08-11T02:13:20;14.40;;;13.20;;
15454;SDS011;21057;51.024;7.540;2022-08-11T02:16:02;14.45;;;13.23;;
15454;SDS011;21057;51.024;7.540;2022-08-11T02:18:44;13.90;;;13.00;;
15454;SDS011;21057;51.024;7.540;2022-08-11T02:21:37;14.25;;;13.05;;
15454;SDS011;21057;51.024;7.540;2022-08-11T02:24:29;13.70;;;12.80;;
15454;SDS011;21057;51.024;7.540;2022-08-11T02:27:05;14.07;;;13.02;;
15454;SDS011;21057;51.024;7.540;2022-08-11T02:29:41;13.80;;;12.90;;
15454;SDS011;21057;51.024;7.540;2022-08-11T02:32:17;14.05;;;12.90;;
15454;SDS011;21057;51.024;7.540;2022-08-11T02:35:09;14.07;;;13.18;;
15454;SDS011;21057;51.024;7.540;2022-08-11T02:37:41;13.88;;;12.95;;
15454;SDS011;21057;51.024;7.540;2022-08-11T02:40:25;13.63;;;12.63;;
15454;SDS011;21057;51.024;7.540;2022-08-11T02:43:12;13.85;;;12.98;;
15454;SDS011;21057;51.024;7.540;2022-08-11T02:45:50;14.18;;;13.18;;
15454;SDS011;21057;51.024;7.540;2022-08-11T02:51:40;14.07;;;12.98;;
15454;SDS011;21057;51.024;7.540;2022-08-11T02:54:20;13.57;;;12.68;;
15454;SDS011;21057;51.024;7.540;2022-08-11T02:56:53;14.05;;;13.05;;
15454;SDS011;21057;51.024;7.540;2022-08-11T02:59:29;13.95;;;13.15;;
15454;SDS011;21057;51.024;7.540;2022-08-11T03:02:19;14.20;;;13.02;;
15454;SDS011;21057;51.024;7.540;2022-08-11T03:08:15;14.48;;;13.48;;
15454;SDS011;21057;51.024;7.540;2022-08-11T03:10:59;13.40;;;12.55;;
15454;SDS011;21057;51.024;7.540;2022-08-11T03:13:50;13.40;;;12.60;;
15454;SDS011;21057;51.024;7.540;2022-08-11T03:16:53;13.98;;;12.88;;
15454;SDS011;21057;51.024;7.540;2022-08-11T03:19:25;13.80;;;12.70;;
15454;SDS011;21057;51.024;7.540;2022-08-11T03:22:01;14.27;;;13.18;;
15454;SDS011;21057;51.024;7.540;2022-08-11T03:24:41;13.15;;;12.25;;
15454;SDS011;21057;51.024;7.540;2022-08-11T03:27:23;13.48;;;12.57;;
15454;SDS011;21057;51.024;7.540;2022-08-11T03:30:05;13.23;;;12.30;;
15454;SDS011;21057;51.024;7.540;2022-08-11T03:32:45;13.27;;;12.32;;
15454;SDS011;21057;51.024;7.540;2022-08-11T03:35:41;13.30;;;12.50;;
15454;SDS011;21057;51.024;7.540;2022-08-11T03:38:18;13.60;;;12.70;;
15454;SDS011;21057;51.024;7.540;2022-08-11T03:40:58;13.35;;;12.50;;
15454;SDS011;21057;51.024;7.540;2022-08-11T03:43:53;14.20;;;13.00;;
15454;SDS011;21057;51.024;7.540;2022-08-11T03:46:34;13.43;;;12.52;;
15454;SDS011;21057;51.024;7.540;2022-08-11T03:49:21;12.52;;;11.70;;
15454;SDS011;21057;51.024;7.540;2022-08-11T03:51:58;12.82;;;12.02;;
15454;SDS011;21057;51.024;7.540;2022-08-11T03:54:39;13.00;;;12.10;;
15454;SDS011;21057;51.024;7.540;2022-08-11T04:00:44;13.35;;;12.57;;
15454;SDS011;21057;51.024;7.540;2022-08-11T04:12:38;14.10;;;13.20;;
15454;SDS011;21057;51.024;7.540;2022-08-11T04:15:24;14.65;;;13.80;;
15454;SDS011;21057;51.024;7.540;2022-08-11T04:30:34;14.13;;;13.30;;
15454;SDS011;21057;51.024;7.540;2022-08-11T04:33:32;13.65;;;12.85;;
15454;SDS011;21057;51.024;7.540;2022-08-11T04:39:38;14.55;;;13.63;;
15454;SDS011;21057;51.024;7.540;2022-08-11T04:45:54;14.65;;;13.68;;
15454;SDS011;21057;51.024;7.540;2022-08-11T04:48:37;14.65;;;13.65;;
15454;SDS011;21057;51.024;7.540;2022-08-11T04:54:56;14.63;;;13.27;;
15454;SDS011;21057;51.024;7.540;2022-08-11T04:58:00;14.50;;;13.52;;
15454;SDS011;21057;51.024;7.540;2022-08-11T05:00:58;15.00;;;14.10;;
15454;SDS011;21057;51.024;7.540;2022-08-11T05:04:06;14.82;;;13.82;;
15454;SDS011;21057;51.024;7.540;2022-08-11T05:07:17;14.60;;;13.60;;
15454;SDS011;21057;51.024;7.540;2022-08-11T05:10:06;14.02;;;13.13;;
15454;SDS011;21057;51.024;7.540;2022-08-11T05:12:45;13.55;;;12.73;;
15454;SDS011;21057;51.024;7.540;2022-08-11T05:15:15;15.73;;;14.73;;
15454;SDS011;21057;51.024;7.540;2022-08-11T05:18:06;15.35;;;14.40;;
15454;SDS011;21057;51.024;7.540;2022-08-11T05:21:09;14.88;;;13.70;;
15454;SDS011;21057;51.024;7.540;2022-08-11T05:23:56;15.60;;;14.60;;
15454;SDS011;21057;51.024;7.540;2022-08-11T05:26:48;14.90;;;13.90;;
15454;SDS011;21057;51.024;7.540;2022-08-11T05:29:41;14.88;;;13.98;;
15454;SDS011;21057;51.024;7.540;2022-08-11T05:32:34;15.30;;;14.07;;
15454;SDS011;21057;51.024;7.540;2022-08-11T05:35:24;14.05;;;13.15;;
15454;SDS011;21057;51.024;7.540;2022-08-11T05:37:56;14.48;;;13.57;;
15454;SDS011;21057;51.024;7.540;2022-08-11T05:40:47;15.32;;;13.85;;
15454;SDS011;21057;51.024;7.540;2022-08-11T05:43:34;14.88;;;13.63;;
15454;SDS011;21057;51.024;7.540;2022-08-11T05:46:25;14.50;;;13.43;;
15454;SDS011;21057;51.024;7.540;2022-08-11T05:49:11;14.30;;;13.27;;
15454;SDS011;21057;51.024;7.540;2022-08-11T05:51:57;14.70;;;13.32;;
15454;SDS011;21057;51.024;7.540;2022-08-11T05:54:45;14.98;;;13.82;;
15454;SDS011;21057;51.024;7.540;2022-08-11T05:57:33;15.10;;;13.90;;
15454;SDS011;21057;51.024;7.540;2022-08-11T06:00:03;14.40;;;13.50;;
15454;SDS011;21057;51.024;7.540;2022-08-11T06:02:38;15.82;;;14.45;;
15454;SDS011;21057;51.024;7.540;2022-08-11T06:05:07;15.15;;;14.05;;
15454;SDS011;21057;51.024;7.540;2022-08-11T06:07:36;15.05;;;14.10;;
15454;SDS011;21057;51.024;7.540;2022-08-11T06:10:04;14.55;;;13.65;;
15454;SDS011;21057;51.024;7.540;2022-08-11T06:12:33;15.00;;;14.05;;
15454;SDS011;21057;51.024;7.540;2022-08-11T06:15:02;15.65;;;14.10;;
15454;SDS011;21057;51.024;7.540;2022-08-11T06:17:32;15.10;;;13.65;;
15454;SDS011;21057;51.024;7.540;2022-08-11T06:20:02;15.55;;;14.23;;
15454;SDS011;21057;51.024;7.540;2022-08-11T06:22:32;18.63;;;14.52;;
15454;SDS011;21057;51.024;7.540;2022-08-11T06:25:01;16.45;;;15.10;;
15454;SDS011;21057;51.024;7.540;2022-08-11T06:27:29;14.32;;;13.23;;
15454;SDS011;21057;51.024;7.540;2022-08-11T06:29:59;14.63;;;13.63;;
15454;SDS011;21057;51.024;7.540;2022-08-11T06:32:37;14.48;;;13.48;;
15454;SDS011;21057;51.024;7.540;2022-08-11T06:35:09;13.85;;;12.95;;
15454;SDS011;21057;51.024;7.540;2022-08-11T06:37:45;13.80;;;13.00;;
15454;SDS011;21057;51.024;7.540;2022-08-11T06:40:29;14.63;;;13.52;;
15454;SDS011;21057;51.024;7.540;2022-08-11T06:43:02;14.52;;;13.48;;
15454;SDS011;21057;51.024;7.540;2022-08-11T06:45:36;14.00;;;13.18;;
15454;SDS011;21057;51.024;7.540;2022-08-11T06:48:11;13.82;;;13.02;;
15454;SDS011;21057;51.024;7.540;2022-08-11T06:50:45;14.20;;;13.27;;
15454;SDS011;21057;51.024;7.540;2022-08-11T06:53:32;14.93;;;14.02;;
15454;SDS011;21057;51.024;7.540;2022-08-11T06:56:02;14.75;;;13.85;;
15454;SDS011;21057;51.024;7.540;2022-08-11T06:58:47;14.80;;;13.80;;
15454;SDS011;21057;51.024;7.540;2022-08-11T07:01:36;14.88;;;14.00;;
15454;SDS011;21057;51.024;7.540;2022-08-11T07:04:12;14.98;;;13.85;;
15454;SDS011;21057;51.024;7.540;2022-08-11T07:06:47;14.05;;;13.25;;
15454;SDS011;21057;51.024;7.540;2022-08-11T07:12:58;14.35;;;13.40;;
15454;SDS011;21057;51.024;7.540;2022-08-11T07:15:43;15.10;;;14.10;;
15454;SDS011;21057;51.024;7.540;2022-08-11T07:18:16;14.88;;;13.88;;
15454;SDS011;21057;51.024;7.540;2022-08-11T07:21:10;15.02;;;14.02;;
15454;SDS011;21057;51.024;7.540;2022-08-11T07:23:57;15.88;;;14.70;;
15454;SDS011;21057;51.024;7.540;2022-08-11T07:26:47;16.60;;;15.57;;
15454;SDS011;21057;51.024;7.540;2022-08-11T07:29:37;16.13;;;15.13;;
15454;SDS011;21057;51.024;7.540;2022-08-11T07:32:10;16.92;;;15.20;;
15454;SDS011;21057;51.024;7.540;2022-08-11T07:34:44;15.63;;;14.63;;
15454;SDS011;21057;51.024;7.540;2022-08-11T07:37:14;17.10;;;16.02;;
15454;SDS011;21057;51.024;7.540;2022-08-11T07:39:44;16.90;;;15.80;;
15454;SDS011;21057;51.024;7.540;2022-08-11T07:42:13;16.40;;;15.40;;
15454;SDS011;21057;51.024;7.540;2022-08-11T07:44:45;17.45;;;16.38;;
15454;SDS011;21057;51.024;7.540;2022-08-11T07:47:30;16.65;;;15.63;;
15454;SDS011;21057;51.024;7.540;2022-08-11T07:50:18;17.35;;;16.27;;
15454;SDS011;21057;51.024;7.540;2022-08-11T07:53:03;17.08;;;15.98;;
15454;SDS011;21057;51.024;7.540;2022-08-11T07:55:31;17.70;;;16.20;;
15454;SDS011;21057;51.024;7.540;2022-08-11T07:57:59;17.38;;;16.27;;
15454;SDS011;21057;51.024;7.540;2022-08-11T08:00:46;16.67;;;15.68;;
15454;SDS011;21057;51.024;7.540;2022-08-11T08:03:34;16.67;;;15.57;;
15454;SDS011;21057;51.024;7.540;2022-08-11T08:06:20;16.70;;;15.50;;
15454;SDS011;21057;51.024;7.540;2022-08-11T08:09:06;16.42;;;15.52;;
15454;SDS011;21057;51.024;7.540;2022-08-11T08:11:52;17.65;;;16.48;;
15454;SDS011;21057;51.024;7.540;2022-08-11T08:14:36;17.30;;;16.30;;
15454;SDS011;21057;51.024;7.540;2022-08-11T08:17:23;16.92;;;15.68;;
15454;SDS011;21057;51.024;7.540;2022-08-11T08:20:09;17.08;;;15.98;;
15454;SDS011;21057;51.024;7.540;2022-08-11T08:22:38;16.95;;;15.80;;
15454;SDS011;21057;51.024;7.540;2022-08-11T08:25:06;16.65;;;15.50;;
15454;SDS011;21057;51.024;7.540;2022-08-11T08:27:34;16.02;;;14.82;;
15454;SDS011;21057;51.024;7.540;2022-08-11T08:30:03;15.70;;;14.65;;
15454;SDS011;21057;51.024;7.540;2022-08-11T08:32:50;16.08;;;15.07;;
15454;SDS011;21057;51.024;7.540;2022-08-11T08:35:21;17.20;;;15.90;;
15454;SDS011;21057;51.024;7.540;2022-08-11T08:37:49;15.82;;;14.93;;
15454;SDS011;21057;51.024;7.540;2022-08-11T08:40:16;15.73;;;14.75;;
15454;SDS011;21057;51.024;7.540;2022-08-11T08:42:45;15.45;;;14.55;;
15454;SDS011;21057;51.024;7.540;2022-08-11T08:45:17;15.77;;;14.88;;
15454;SDS011;21057;51.024;7.540;2022-08-11T08:47:46;16.23;;;15.13;;
15454;SDS011;21057;51.024;7.540;2022-08-11T08:50:20;16.30;;;15.20;;
15454;SDS011;21057;51.024;7.540;2022-08-11T08:53:08;16.27;;;15.27;;
15454;SDS011;21057;51.024;7.540;2022-08-11T08:55:36;15.90;;;15.00;;
15454;SDS011;21057;51.024;7.540;2022-08-11T08:58:05;16.15;;;15.18;;
15454;SDS011;21057;51.024;7.540;2022-08-11T09:00:36;16.45;;;15.50;;
15454;SDS011;21057;51.024;7.540;2022-08-11T09:03:05;16.17;;;15.18;;
15454;SDS011;21057;51.024;7.540;2022-08-11T09:05:34;15.73;;;14.82;;
15454;SDS011;21057;51.024;7.540;2022-08-11T09:08:01;16.75;;;15.48;;
15454;SDS011;21057;51.024;7.540;2022-08-11T09:10:29;16.73;;;15.70;;
15454;SDS011;21057;51.024;7.540;2022-08-11T09:12:57;16.77;;;15.68;;
15454;SDS011;21057;51.024;7.540;2022-08-11T09:15:25;16.02;;;15.13;;
15454;SDS011;21057;51.024;7.540;2022-08-11T09:17:53;15.93;;;15.02;;
15454;SDS011;21057;51.024;7.540;2022-08-11T09:20:30;15.45;;;14.45;;
15454;SDS011;21057;51.024;7.540;2022-08-11T09:23:02;16.75;;;15.48;;
15454;SDS011;21057;51.024;7.540;2022-08-11T09:25:48;16.55;;;15.45;;
15454;SDS011;21057;51.024;7.540;2022-08-11T09:28:35;17.08;;;16.08;;
15454;SDS011;21057;51.024;7.540;2022-08-11T09:31:02;17.67;;;16.58;;
15454;SDS011;21057;51.024;7.540;2022-08-11T09:33:32;17.75;;;16.48;;
15454;SDS011;21057;51.024;7.540;2022-08-11T09:36:00;17.42;;;16.33;;
15454;SDS011;21057;51.024;7.540;2022-08-11T09:38:51;17.08;;;16.13;;
15454;SDS011;21057;51.024;7.540;2022-08-11T09:41:37;16.65;;;15.75;;
15454;SDS011;21057;51.024;7.540;2022-08-11T09:44:06;17.00;;;15.77;;
15454;SDS011;21057;51.024;7.540;2022-08-11T09:46:52;16.00;;;15.00;;
15454;SDS011;21057;51.024;7.540;2022-08-11T09:49:23;16.25;;;15.25;;
15454;SDS011;21057;51.024;7.540;2022-08-11T09:51:51;15.90;;;14.90;;
15454;SDS011;21057;51.024;7.540;2022-08-11T09:54:21;16.65;;;15.57;;
15454;SDS011;21057;51.024;7.540;2022-08-11T09:56:50;16.27;;;15.18;;
15454;SDS011;21057;51.024;7.540;2022-08-11T09:59:41;16.05;;;15.05;;
15454;SDS011;21057;51.024;7.540;2022-08-11T10:02:08;15.68;;;14.75;;
15454;SDS011;21057;51.024;7.540;2022-08-11T10:04:37;15.93;;;14.75;;
15454;SDS011;21057;51.024;7.540;2022-08-11T10:07:09;15.90;;;15.00;;
15454;SDS011;21057;51.024;7.540;2022-08-11T10:09:41;16.15;;;15.25;;
15454;SDS011;21057;51.024;7.540;2022-08-11T10:12:13;16.50;;;15.52;;
15454;SDS011;21057;51.024;7.540;2022-08-11T10:14:50;15.73;;;14.73;;
15454;SDS011;21057;51.024;7.540;2022-08-11T10:17:38;16.02;;;14.80;;
15454;SDS011;21057;51.024;7.540;2022-08-11T10:20:30;15.60;;;14.70;;
15454;SDS011;21057;51.024;7.540;2022-08-11T10:23:00;15.95;;;14.93;;
15454;SDS011;21057;51.024;7.540;2022-08-11T10:25:46;15.95;;;14.95;;
15454;SDS011;21057;51.024;7.540;2022-08-11T10:28:31;16.25;;;15.35;;
15454;SDS011;21057;51.024;7.540;2022-08-11T10:31:03;15.63;;;14.73;;
15454;SDS011;21057;51.024;7.540;2022-08-11T10:33:48;16.05;;;15.05;;
15454;SDS011;21057;51.024;7.540;2022-08-11T10:36:25;17.42;;;16.25;;
15454;SDS011;21057;51.024;7.540;2022-08-11T10:38:54;16.95;;;15.95;;
15454;SDS011;21057;51.024;7.540;2022-08-11T10:41:23;16.90;;;15.75;;
15454;SDS011;21057;51.024;7.540;2022-08-11T10:44:08;17.33;;;16.23;;
15454;SDS011;21057;51.024;7.540;2022-08-11T10:46:36;17.13;;;16.02;;
15454;SDS011;21057;51.024;7.540;2022-08-11T10:49:21;17.65;;;16.55;;
15454;SDS011;21057;51.024;7.540;2022-08-11T10:51:50;17.63;;;16.38;;
15454;SDS011;21057;51.024;7.540;2022-08-11T10:54:35;17.38;;;16.30;;
15454;SDS011;21057;51.024;7.540;2022-08-11T10:57:24;16.67;;;15.68;;
15454;SDS011;21057;51.024;7.540;2022-08-11T11:00:10;16.88;;;15.88;;
15454;SDS011;21057;51.024;7.540;2022-08-11T11:02:39;16.23;;;15.23;;
15454;SDS011;21057;51.024;7.540;2022-08-11T11:05:10;16.92;;;15.93;;
15454;SDS011;21057;51.024;7.540;2022-08-11T11:07:45;16.42;;;15.52;;
15454;SDS011;21057;51.024;7.540;2022-08-11T11:10:17;16.10;;;15.15;;
15454;SDS011;21057;51.024;7.540;2022-08-11T11:12:54;16.60;;;15.60;;
15454;SDS011;21057;51.024;7.540;2022-08-11T11:15:41;17.38;;;16.38;;
15454;SDS011;21057;51.024;7.540;2022-08-11T11:18:30;17.40;;;16.27;;
15454;SDS011;21057;51.024;7.540;2022-08-11T11:21:02;17.00;;;15.90;;
15454;SDS011;21057;51.024;7.540;2022-08-11T11:23:33;16.83;;;15.85;;
15454;SDS011;21057;51.024;7.540;2022-08-11T11:26:16;16.58;;;15.57;;
15454;SDS011;21057;51.024;7.540;2022-08-11T11:37:47;16.80;;;15.80;;
15454;SDS011;21057;51.024;7.540;2022-08-11T11:40:19;17.90;;;16.90;;
15454;SDS011;21057;51.024;7.540;2022-08-11T11:42:48;20.02;;;16.60;;
15454;SDS011;21057;51.024;7.540;2022-08-11T11:45:20;19.05;;;17.65;;
15454;SDS011;21057;51.024;7.540;2022-08-11T11:47:49;18.25;;;17.05;;
15454;SDS011;21057;51.024;7.540;2022-08-11T11:50:21;17.73;;;16.73;;
15454;SDS011;21057;51.024;7.540;2022-08-11T11:52:49;18.60;;;17.50;;
15454;SDS011;21057;51.024;7.540;2022-08-11T11:55:18;19.00;;;17.80;;
15454;SDS011;21057;51.024;7.540;2022-08-11T11:57:48;17.80;;;16.65;;
15454;SDS011;21057;51.024;7.540;2022-08-11T12:00:34;18.77;;;17.50;;
15454;SDS011;21057;51.024;7.540;2022-08-11T12:03:19;18.05;;;16.85;;
15454;SDS011;21057;51.024;7.540;2022-08-11T12:05:47;18.02;;;17.02;;
15454;SDS011;21057;51.024;7.540;2022-08-11T12:08:17;18.15;;;17.05;;
15454;SDS011;21057;51.024;7.540;2022-08-11T12:10:46;17.83;;;16.83;;
15454;SDS011;21057;51.024;7.540;2022-08-11T12:13:15;17.55;;;16.35;;
15454;SDS011;21057;51.024;7.540;2022-08-11T12:16:02;18.58;;;17.27;;
15454;SDS011;21057;51.024;7.540;2022-08-11T12:18:30;16.13;;;15.23;;
15454;SDS011;21057;51.024;7.540;2022-08-11T12:20:59;16.40;;;15.40;;
15454;SDS011;21057;51.024;7.540;2022-08-11T12:23:27;16.83;;;15.82;;
15454;SDS011;21057;51.024;7.540;2022-08-11T12:26:13;16.20;;;15.20;;
15454;SDS011;21057;51.024;7.540;2022-08-11T12:28:59;15.95;;;14.93;;
15454;SDS011;21057;51.024;7.540;2022-08-11T12:31:28;15.55;;;14.65;;
15454;SDS011;21057;51.024;7.540;2022-08-11T12:33:59;16.35;;;15.13;;
15454;SDS011;21057;51.024;7.540;2022-08-11T12:36:28;16.63;;;15.50;;
15454;SDS011;21057;51.024;7.540;2022-08-11T12:38:58;16.90;;;15.75;;
15454;SDS011;21057;51.024;7.540;2022-08-11T12:41:25;16.73;;;15.70;;
15454;SDS011;21057;51.024;7.540;2022-08-11T12:44:11;16.92;;;16.00;;
15454;SDS011;21057;51.024;7.540;2022-08-11T12:46:58;16.70;;;15.60;;
15454;SDS011;21057;51.024;7.540;2022-08-11T12:49:28;17.08;;;16.08;;
15454;SDS011;21057;51.024;7.540;2022-08-11T12:52:17;16.83;;;15.77;;
15454;SDS011;21057;51.024;7.540;2022-08-11T12:54:50;16.10;;;15.07;;
15454;SDS011;21057;51.024;7.540;2022-08-11T12:57:24;15.95;;;14.93;;
15454;SDS011;21057;51.024;7.540;2022-08-11T13:00:12;16.40;;;15.50;;
15454;SDS011;21057;51.024;7.540;2022-08-11T13:02:58;16.88;;;15.75;;
15454;SDS011;21057;51.024;7.540;2022-08-11T13:05:45;16.88;;;15.77;;
15454;SDS011;21057;51.024;7.540;2022-08-11T13:08:13;17.00;;;16.00;;
15454;SDS011;21057;51.024;7.540;2022-08-11T13:10:42;16.60;;;15.60;;
15454;SDS011;21057;51.024;7.540;2022-08-11T13:13:27;16.48;;;15.57;;
15454;SDS011;21057;51.024;7.540;2022-08-11T13:15:55;16.35;;;15.45;;
15454;SDS011;21057;51.024;7.540;2022-08-11T13:18:24;16.30;;;15.20;;
15454;SDS011;21057;51.024;7.540;2022-08-11T13:20:52;16.10;;;15.20;;
15454;SDS011;21057;51.024;7.540;2022-08-11T13:23:20;16.73;;;15.73;;
15454;SDS011;21057;51.024;7.540;2022-08-11T13:25:49;16.48;;;15.40;;
15454;SDS011;21057;51.024;7.540;2022-08-11T13:28:19;16.60;;;15.60;;
15454;SDS011;21057;51.024;7.540;2022-08-11T13:30:47;16.30;;;15.30;;
15454;SDS011;21057;51.024;7.540;2022-08-11T13:33:34;16.60;;;15.63;;
15454;SDS011;21057;51.024;7.540;2022-08-11T13:36:05;16.45;;;15.43;;
15454;SDS011;21057;51.024;7.540;2022-08-11T13:38:33;16.38;;;15.43;;
15454;SDS011;21057;51.024;7.540;2022-08-11T13:41:01;15.85;;;14.93;;
15454;SDS011;21057;51.024;7.540;2022-08-11T13:43:49;16.45;;;15.45;;
15454;SDS011;21057;51.024;7.540;2022-08-11T13:46:18;16.17;;;15.07;;
15454;SDS011;21057;51.024;7.540;2022-08-11T13:48:49;15.60;;;14.60;;
15454;SDS011;21057;51.024;7.540;2022-08-11T13:51:18;16.10;;;14.98;;
15454;SDS011;21057;51.024;7.540;2022-08-11T13:53:57;16.55;;;15.45;;
15454;SDS011;21057;51.024;7.540;2022-08-11T13:56:26;15.55;;;14.48;;
15454;SDS011;21057;51.024;7.540;2022-08-11T13:58:53;15.85;;;14.65;;
15454;SDS011;21057;51.024;7.540;2022-08-11T14:01:22;16.02;;;15.02;;
15454;SDS011;21057;51.024;7.540;2022-08-11T14:03:54;15.95;;;14.88;;
15454;SDS011;21057;51.024;7.540;2022-08-11T14:06:28;15.32;;;14.43;;
15454;SDS011;21057;51.024;7.540;2022-08-11T14:08:56;15.60;;;14.70;;
15454;SDS011;21057;51.024;7.540;2022-08-11T14:11:24;15.23;;;14.30;;
15454;SDS011;21057;51.024;7.540;2022-08-11T14:14:11;15.68;;;14.68;;
15454;SDS011;21057;51.024;7.540;2022-08-11T14:16:44;15.85;;;14.85;;
15454;SDS011;21057;51.024;7.540;2022-08-11T14:19:15;16.35;;;15.35;;
15454;SDS011;21057;51.024;7.540;2022-08-11T14:21:45;15.77;;;14.68;;
15454;SDS011;21057;51.024;7.540;2022-08-11T14:24:31;15.57;;;14.68;;
15454;SDS011;21057;51.024;7.540;2022-08-11T14:27:00;15.50;;;14.45;;
15454;SDS011;21057;51.024;7.540;2022-08-11T14:29:28;15.35;;;14.45;;
15454;SDS011;21057;51.024;7.540;2022-08-11T14:31:57;16.25;;;15.15;;
15454;SDS011;21057;51.024;7.540;2022-08-11T14:34:28;15.60;;;14.50;;
15454;SDS011;21057;51.024;7.540;2022-08-11T14:36:59;15.60;;;14.50;;
15454;SDS011;21057;51.024;7.540;2022-08-11T14:39:27;15.27;;;14.38;;
15454;SDS011;21057;51.024;7.540;2022-08-11T14:41:59;15.13;;;14.30;;
15454;SDS011;21057;51.024;7.540;2022-08-11T14:44:46;14.80;;;13.80;;
15454;SDS011;21057;51.024;7.540;2022-08-11T14:47:41;15.00;;;14.10;;
15454;SDS011;21057;51.024;7.540;2022-08-11T14:50:13;15.07;;;14.18;;
15454;SDS011;21057;51.024;7.540;2022-08-11T14:52:44;15.48;;;14.38;;
15454;SDS011;21057;51.024;7.540;2022-08-11T14:55:14;15.10;;;14.20;;
15454;SDS011;21057;51.024;7.540;2022-08-11T14:57:59;15.30;;;14.40;;
15454;SDS011;21057;51.024;7.540;2022-08-11T15:00:27;15.02;;;14.18;;
15454;SDS011;21057;51.024;7.540;2022-08-11T15:02:55;15.15;;;14.25;;
15454;SDS011;21057;51.024;7.540;2022-08-11T15:05:39;16.02;;;15.02;;
15454;SDS011;21057;51.024;7.540;2022-08-11T15:08:09;16.60;;;15.50;;
15454;SDS011;21057;51.024;7.540;2022-08-11T15:10:39;16.23;;;15.27;;
15454;SDS011;21057;51.024;7.540;2022-08-11T15:13:06;15.98;;;15.07;;
15454;SDS011;21057;51.024;7.540;2022-08-11T15:15:35;16.40;;;15.50;;
15454;SDS011;21057;51.024;7.540;2022-08-11T15:18:21;16.83;;;15.63;;
15454;SDS011;21057;51.024;7.540;2022-08-11T15:20:52;16.33;;;15.32;;
15454;SDS011;21057;51.024;7.540;2022-08-11T15:23:37;16.35;;;15.00;;
15454;SDS011;21057;51.024;7.540;2022-08-11T15:26:25;16.10;;;15.07;;
15454;SDS011;21057;51.024;7.540;2022-08-11T15:29:11;16.70;;;15.50;;
15454;SDS011;21057;51.024;7.540;2022-08-11T15:31:58;16.02;;;15.13;;
15454;SDS011;21057;51.024;7.540;2022-08-11T15:34:42;15.50;;;14.60;;
15454;SDS011;21057;51.024;7.540;2022-08-11T15:37:31;16.10;;;14.80;;
15454;SDS011;21057;51.024;7.540;2022-08-11T15:40:02;16.27;;;15.38;;
15454;SDS011;21057;51.024;7.540;2022-08-11T15:42:56;17.17;;;16.08;;
15454;SDS011;21057;51.024;7.540;2022-08-11T15:45:43;16.40;;;15.18;;
15454;SDS011;21057;51.024;7.540;2022-08-11T15:48:18;16.48;;;15.48;;
15454;SDS011;21057;51.024;7.540;2022-08-11T15:50:53;16.27;;;15.38;;
15454;SDS011;21057;51.024;7.540;2022-08-11T15:53:26;15.90;;;14.90;;
15454;SDS011;21057;51.024;7.540;2022-08-11T15:55:58;16.05;;;15.02;;
15454;SDS011;21057;51.024;7.540;2022-08-11T15:58:28;15.88;;;14.93;;
15454;SDS011;21057;51.024;7.540;2022-08-11T16:01:15;16.05;;;15.05;;
15454;SDS011;21057;51.024;7.540;2022-08-11T16:04:02;15.77;;;14.70;;
15454;SDS011;21057;51.024;7.540;2022-08-11T16:06:44;16.27;;;15.27;;
15454;SDS011;21057;51.024;7.540;2022-08-11T16:09:19;16.23;;;15.23;;
15454;SDS011;21057;51.024;7.540;2022-08-11T16:11:49;16.00;;;15.00;;
15454;SDS011;21057;51.024;7.540;2022-08-11T16:14:18;15.98;;;15.05;;
15454;SDS011;21057;51.024;7.540;2022-08-11T16:17:06;16.15;;;15.15;;
15454;SDS011;21057;51.024;7.540;2022-08-11T16:19:36;15.77;;;14.88;;
15454;SDS011;21057;51.024;7.540;2022-08-11T16:22:07;16.30;;;15.20;;
15454;SDS011;21057;51.024;7.540;2022-08-11T16:24:38;15.38;;;14.48;;
15454;SDS011;21057;51.024;7.540;2022-08-11T16:27:09;15.60;;;14.70;;
15454;SDS011;21057;51.024;7.540;2022-08-11T16:29:37;16.27;;;15.10;;
15454;SDS011;21057;51.024;7.540;2022-08-11T16:32:07;15.50;;;14.60;;
15454;SDS011;21057;51.024;7.540;2022-08-11T16:34:45;16.02;;;15.00;;
15454;SDS011;21057;51.024;7.540;2022-08-11T16:37:35;15.40;;;14.50;;
15454;SDS011;21057;51.024;7.540;2022-08-11T16:40:22;15.68;;;14.70;;
15454;SDS011;21057;51.024;7.540;2022-08-11T16:42:50;15.77;;;14.88;;